Time;durP1;ratioP1;P1;durP2;ratioP2;P2;SDS_P1;SDS_P2;PMS_P1;PMS_P2;Temp;Humidity;BMP_temperature;BMP_pressure;BME280_temperature;BME280_humidity;BME280_pressure;Samples;Min_cycle;Max_cycle;Signal;HPM_P1;HPM_P2
2023/05/21 00:00:49;;;;;;;12.07;7.75;;;;;;;20.01;100.00;100452.16;2090410;28;20037;-71
2023/05/21 00:02:14;;;;;;;13.50;8.38;;;;;;;20.01;100.00;100471.81;2086371;28;20076;-71
2023/05/21 00:03:40;;;;;;;12.52;7.82;;;;;;;20.03;100.00;100474.41;2085192;28;20148;-71
2023/05/21 00:05:03;;;;;;;14.75;8.48;;;;;;;20.05;100.00;100480.63;2085496;28;20763;-71
2023/05/21 00:06:26;;;;;;;14.25;8.13;;;;;;;20.05;100.00;100470.78;2096988;28;20052;-71
2023/05/21 00:07:52;;;;;;;15.90;8.40;;;;;;;20.08;100.00;100468.03;2081936;28;20080;-71
2023/05/21 00:09:14;;;;;;;13.93;7.65;;;;;;;20.09;100.00;100475.13;2101660;28;20135;-70
2023/05/21 00:10:35;;;;;;;11.52;7.68;;;;;;;20.10;100.00;100479.56;2090725;28;20658;-70
2023/05/21 00:11:58;;;;;;;11.75;8.25;;;;;;;20.09;100.00;100479.59;2080787;28;20503;-71
2023/05/21 00:13:21;;;;;;;17.52;8.77;;;;;;;20.07;100.00;100482.34;2084227;28;20052;-71
2023/05/21 00:14:43;;;;;;;15.48;8.25;;;;;;;20.04;100.00;100487.78;2086289;28;20061;-71
2023/05/21 00:16:05;;;;;;;14.43;8.30;;;;;;;19.99;100.00;100495.06;2090995;28;20032;-71
2023/05/21 00:17:27;;;;;;;;;;;;;;;19.92;100.00;100509.56;2098188;28;20133;-72
2023/05/21 00:18:50;;;;;;;13.13;8.60;;;;;;;19.89;100.00;100518.53;2095000;28;20375;-71
2023/05/21 00:20:13;;;;;;;14.63;8.55;;;;;;;19.88;100.00;100524.84;2095151;28;20042;-71
2023/05/21 00:21:34;;;;;;;17.20;8.48;;;;;;;19.81;100.00;100533.97;2094842;28;20114;-71
2023/05/21 00:22:57;;;;;;;15.02;9.27;;;;;;;19.75;100.00;100555.56;2094866;28;20055;-71
2023/05/21 00:24:19;;;;;;;11.85;8.32;;;;;;;19.72;100.00;100552.94;2086689;28;20100;-71
2023/05/21 00:25:40;;;;;;;15.75;8.88;;;;;;;19.72;100.00;100560.97;2092418;28;20456;-71
2023/05/21 00:27:03;;;;;;;14.07;8.75;;;;;;;19.71;100.00;100542.25;2093897;28;20195;-71
2023/05/21 00:28:25;;;;;;;15.30;10.02;;;;;;;19.70;100.00;100536.00;2092124;28;20417;-70
2023/05/21 00:29:49;;;;;;;14.30;8.35;;;;;;;19.67;100.00;100524.50;2084733;28;20068;-71
2023/05/21 00:31:11;;;;;;;12.38;9.05;;;;;;;19.63;100.00;100514.78;2083210;28;20440;-71
2023/05/21 00:32:33;;;;;;;14.50;9.02;;;;;;;19.56;100.00;100505.16;2081998;28;20559;-71
2023/05/21 00:33:55;;;;;;;13.85;8.73;;;;;;;19.49;100.00;100499.94;2089560;28;20066;-71
2023/05/21 00:35:18;;;;;;;14.68;8.70;;;;;;;19.44;100.00;100499.16;2093589;28;20064;-70
2023/05/21 00:36:44;;;;;;;15.48;9.02;;;;;;;19.40;100.00;100497.47;2079634;28;20603;-71
2023/05/21 00:38:06;;;;;;;12.77;8.63;;;;;;;19.36;100.00;100490.41;2096196;28;20048;-70
2023/05/21 00:39:29;;;;;;;15.07;8.25;;;;;;;19.35;100.00;100486.00;2088979;28;20136;-71
2023/05/21 00:40:51;;;;;;;12.65;7.40;;;;;;;19.34;100.00;100476.22;2086701;28;20071;-71
2023/05/21 00:42:16;;;;;;;14.68;8.50;;;;;;;19.33;100.00;100458.38;2083470;28;20094;-71
2023/05/21 00:43:40;;;;;;;14.75;8.00;;;;;;;19.31;100.00;100452.19;2088200;28;20079;-72
2023/05/21 00:45:02;;;;;;;13.30;7.93;;;;;;;19.30;100.00;100445.06;2094298;28;20886;-70
2023/05/21 00:46:27;;;;;;;11.82;7.93;;;;;;;19.29;100.00;100434.41;2088143;28;20048;-71
2023/05/21 00:47:53;;;;;;;13.32;8.60;;;;;;;19.29;100.00;100423.72;2080778;28;20042;-71
2023/05/21 00:49:14;;;;;;;13.95;7.78;;;;;;;19.28;100.00;100409.44;2086498;28;20044;-70
2023/05/21 00:50:38;;;;;;;14.05;7.45;;;;;;;19.27;100.00;100396.09;2103060;28;20599;-70
2023/05/21 00:52:00;;;;;;;13.68;7.25;;;;;;;19.26;100.00;100386.31;2082648;28;20140;-71
2023/05/21 00:53:22;;;;;;;;;;;;;;;19.23;100.00;100376.53;2080574;28;20110;-71
2023/05/21 00:54:44;;;;;;;11.40;7.18;;;;;;;19.22;100.00;100372.13;2099631;28;20043;-71
2023/05/21 00:56:07;;;;;;;12.02;7.95;;;;;;;19.24;100.00;100366.72;2091550;28;20048;-70
2023/05/21 00:57:32;;;;;;;11.18;6.80;;;;;;;19.24;100.00;100364.03;2102633;28;20074;-71
2023/05/21 00:58:57;;;;;;;11.85;7.25;;;;;;;19.25;100.00;100356.00;2082894;28;20088;-70
2023/05/21 01:00:21;;;;;;;11.30;7.80;;;;;;;19.25;100.00;100350.63;2079586;28;20061;-70
2023/05/21 01:01:44;;;;;;;11.00;6.70;;;;;;;19.25;100.00;100350.63;2092412;28;20048;-70
2023/05/21 01:03:06;;;;;;;11.70;7.15;;;;;;;19.26;100.00;100347.03;2083199;28;20707;-70
2023/05/21 01:04:30;;;;;;;14.75;7.72;;;;;;;19.25;100.00;100349.75;2085567;28;20135;-70
2023/05/21 01:05:58;;;;;;;15.15;7.90;;;;;;;19.24;100.00;100356.91;2084271;28;20053;-70
2023/05/21 01:07:21;;;;;;;12.95;7.05;;;;;;;19.26;100.00;100360.44;2098497;28;20052;-71
2023/05/21 01:08:44;;;;;;;11.35;7.45;;;;;;;19.27;100.00;100366.66;2080223;28;20037;-71
2023/05/21 01:10:07;;;;;;;11.25;7.13;;;;;;;19.30;100.00;100380.81;2070125;28;20139;-71
2023/05/21 01:11:38;;;;;;;12.35;7.05;;;;;;;19.30;100.00;100387.97;2098789;28;20381;-71
2023/05/21 01:13:01;;;;;;;12.45;7.15;;;;;;;19.31;100.00;100389.75;2082136;28;20053;-71
2023/05/21 01:14:25;;;;;;;11.60;7.45;;;;;;;19.34;100.00;100400.38;2086090;28;20462;-71
2023/05/21 01:15:48;;;;;;;14.20;8.15;;;;;;;19.36;100.00;100404.75;2084838;28;20144;-71
2023/05/21 01:17:12;;;;;;;11.32;7.55;;;;;;;19.39;100.00;100404.69;2102223;28;20278;-71
2023/05/21 01:18:36;;;;;;;15.20;7.65;;;;;;;19.40;100.00;100409.13;2086190;28;20073;-71
2023/05/21 01:19:58;;;;;;;15.68;6.88;;;;;;;19.42;100.00;100403.75;2091424;28;20109;-71
2023/05/21 01:21:27;;;;;;;12.55;6.68;;;;;;;19.41;100.00;100410.00;2092758;28;20040;-70
2023/05/21 01:22:55;;;;;;;12.82;7.13;;;;;;;19.40;100.00;100417.16;2080683;28;20038;-71
2023/05/21 01:24:19;;;;;;;10.35;6.78;;;;;;;19.38;100.00;100418.09;2100475;28;20063;-70
2023/05/21 01:25:41;;;;;;;13.13;7.50;;;;;;;19.37;100.00;100414.53;2091376;28;20041;-70
2023/05/21 01:27:06;;;;;;;11.27;7.47;;;;;;;19.35;100.00;100396.78;2079130;28;20095;-70
2023/05/21 01:28:28;;;;;;;11.05;6.50;;;;;;;19.34;100.00;100395.91;2108946;28;20067;-71
2023/05/21 01:29:50;;;;;;;;;;;;;;;19.33;100.00;100406.66;2085153;28;20059;-71
2023/05/21 01:31:22;;;;;;;10.82;7.15;;;;;;;19.34;100.00;100408.41;2081693;28;19974;-70
2023/05/21 01:32:49;;;;;;;12.27;7.85;;;;;;;19.33;100.00;100404.84;2087503;28;20049;-71
2023/05/21 01:34:13;;;;;;;11.82;7.25;;;;;;;19.31;100.00;100400.44;2088533;28;20056;-71
2023/05/21 01:35:39;;;;;;;13.23;6.53;;;;;;;19.30;100.00;100401.34;2106309;28;20040;-70
2023/05/21 01:37:12;;;;;;;13.80;7.75;;;;;;;19.27;100.00;100386.28;2082824;28;20338;-71
2023/05/21 01:38:41;;;;;;;11.00;6.55;;;;;;;19.28;100.00;100396.06;2092704;28;20520;-70
2023/05/21 01:40:09;;;;;;;11.65;6.88;;;;;;;19.30;100.00;100401.34;2105869;28;20533;-71
2023/05/21 01:41:35;;;;;;;10.38;6.97;;;;;;;19.30;100.00;100401.34;2087444;28;20182;-70
2023/05/21 01:42:58;;;;;;;11.13;6.68;;;;;;;19.31;100.00;100411.16;2075846;28;20092;-71
2023/05/21 01:44:22;;;;;;;14.85;6.60;;;;;;;19.33;100.00;100406.66;2075967;28;20041;-71
2023/05/21 01:45:46;;;;;;;12.10;7.07;;;;;;;19.34;100.00;100409.28;2082413;28;20124;-71
2023/05/21 01:47:08;;;;;;;11.00;7.05;;;;;;;19.36;100.00;100395.88;2085625;28;20574;-70
2023/05/21 01:48:32;;;;;;;22.30;7.07;;;;;;;19.35;100.00;100399.47;2077411;28;20097;-71
2023/05/21 01:49:53;;;;;;;11.52;6.40;;;;;;;19.36;100.00;100395.88;2092059;28;20052;-71
2023/05/21 01:51:16;;;;;;;10.88;6.97;;;;;;;19.34;100.00;100398.59;2096351;28;20040;-71
2023/05/21 01:52:39;;;;;;;14.43;6.85;;;;;;;19.33;100.00;100387.91;2095746;28;20059;-71
2023/05/21 01:54:03;;;;;;;10.20;6.40;;;;;;;19.32;100.00;100383.47;2087653;28;20083;-70
2023/05/21 01:55:25;;;;;;;8.73;6.38;;;;;;;19.29;100.00;100378.22;2091753;28;20048;-71
2023/05/21 01:56:48;;;;;;;11.95;6.72;;;;;;;19.29;100.00;100383.56;2100583;28;20052;-70
2023/05/21 01:58:11;;;;;;;11.35;6.75;;;;;;;19.29;100.00;100372.88;2089925;28;20151;-71
2023/05/21 01:59:32;;;;;;;10.57;6.50;;;;;;;19.29;100.00;100375.53;2093192;28;20090;-71
2023/05/21 02:00:55;;;;;;;11.77;6.68;;;;;;;19.28;100.00;100366.63;2083560;28;20048;-71
2023/05/21 02:02:16;;;;;;;10.27;6.32;;;;;;;19.29;100.00;100372.88;2088525;28;20087;-71
2023/05/21 02:03:39;;;;;;;17.77;6.93;;;;;;;19.30;100.00;100385.28;2078209;28;20518;-71
2023/05/21 02:05:02;;;;;;;10.10;6.05;;;;;;;19.30;100.00;100377.25;2102263;28;20070;-71
2023/05/21 02:06:25;;;;;;;10.23;6.82;;;;;;;19.31;100.00;100387.06;2095166;28;20044;-71
2023/05/21 02:07:46;;;;;;;10.70;6.60;;;;;;;19.33;100.00;100385.22;2080953;28;20155;-71
2023/05/21 02:09:11;;;;;;;10.70;6.90;;;;;;;19.34;100.00;100376.28;2089939;28;20044;-71
2023/05/21 02:10:33;;;;;;;9.40;5.60;;;;;;;19.34;100.00;100379.84;2087984;28;20048;-71
2023/05/21 02:11:55;;;;;;;9.80;6.38;;;;;;;19.35;100.00;100373.56;2087850;28;20049;-71
2023/05/21 02:13:19;;;;;;;10.60;7.57;;;;;;;19.35;100.00;100378.94;2082725;28;20038;-71
2023/05/21 02:14:41;;;;;;;10.63;6.28;;;;;;;19.34;100.00;100382.53;2089512;28;20139;-71
2023/05/21 02:16:03;;;;;;;10.27;6.43;;;;;;;19.32;100.00;100383.47;2088409;28;20143;-71
2023/05/21 02:17:25;;;;;;;9.35;5.82;;;;;;;19.30;100.00;100388.84;2088658;28;20122;-71
2023/05/21 02:18:50;;;;;;;11.20;6.15;;;;;;;19.30;100.00;100391.53;2094102;28;20607;-71
2023/05/21 02:20:12;;;;;;;12.52;6.22;;;;;;;19.32;100.00;100399.53;2086813;28;20048;-71
2023/05/21 02:21:35;;;;;;;8.88;6.00;;;;;;;19.31;100.00;100395.09;2087967;28;20437;-71
2023/05/21 02:22:58;;;;;;;9.63;5.95;;;;;;;19.31;100.00;100397.75;2092395;28;20040;-71
2023/05/21 02:24:23;;;;;;;9.63;5.68;;;;;;;19.30;100.00;100393.31;2085773;28;20409;-70
2023/05/21 02:25:45;;;;;;;11.30;6.30;;;;;;;19.27;100.00;100396.09;2090068;28;20094;-71
2023/05/21 02:27:06;;;;;;;11.75;6.53;;;;;;;19.27;100.00;100410.38;2085961;28;20049;-71
2023/05/21 02:28:31;;;;;;;9.50;6.65;;;;;;;19.27;100.00;100417.50;2090274;28;20071;-71
2023/05/21 02:29:54;;;;;;;10.65;5.63;;;;;;;19.25;100.00;100419.34;2083275;28;20052;-70
2023/05/21 02:31:15;;;;;;;10.77;6.38;;;;;;;19.24;100.00;100413.09;2089825;28;20143;-71
2023/05/21 02:32:38;;;;;;;11.02;5.50;;;;;;;19.23;100.00;100413.16;2101918;28;20518;-71
2023/05/21 02:34:00;;;;;;;10.27;6.05;;;;;;;19.22;100.00;100416.75;2082774;28;20056;-70
2023/05/21 02:35:22;;;;;;;10.88;5.88;;;;;;;19.22;100.00;100414.09;2084450;28;20052;-71
2023/05/21 02:36:47;;;;;;;10.23;6.90;;;;;;;19.21;100.00;100407.84;2079073;28;20049;-71
2023/05/21 02:38:09;;;;;;;10.50;5.50;;;;;;;19.21;100.00;100413.19;2083186;28;20044;-71
2023/05/21 02:39:33;;;;;;;9.25;5.43;;;;;;;19.22;100.00;100414.09;2082973;28;20061;-71
2023/05/21 02:40:54;;;;;;;11.52;5.57;;;;;;;19.22;100.00;100417.63;2099754;28;20039;-71
2023/05/21 02:42:17;;;;;;;9.93;5.90;;;;;;;19.22;100.00;100408.72;2086098;28;20395;-71
2023/05/21 02:43:38;;;;;;;11.23;5.68;;;;;;;19.22;100.00;100409.63;2094089;28;20105;-71
2023/05/21 02:45:01;;;;;;;13.80;6.10;;;;;;;19.23;100.00;100410.50;2081587;28;20508;-71
2023/05/21 02:46:23;;;;;;;10.63;5.53;;;;;;;19.23;100.00;100407.81;2080461;28;20060;-71
2023/05/21 02:47:48;;;;;;;9.73;5.70;;;;;;;19.24;100.00;100413.09;2082683;28;20077;-71
2023/05/21 02:49:14;;;;;;;11.05;6.15;;;;;;;19.25;100.00;100403.28;2081926;28;20060;-71
2023/05/21 02:50:38;;;;;;;9.27;5.07;;;;;;;19.27;100.00;100401.44;2090782;28;20045;-71
2023/05/21 02:51:59;;;;;;;12.60;5.30;;;;;;;19.28;100.00;100409.44;2088228;28;20043;-71
2023/05/21 02:53:22;;;;;;;8.93;5.43;;;;;;;19.30;100.00;100407.59;2082661;28;20048;-71
2023/05/21 02:54:46;;;;;;;8.93;5.05;;;;;;;19.32;100.00;100416.47;2082855;28;20093;-70
2023/05/21 02:56:08;;;;;;;11.98;5.65;;;;;;;19.32;100.00;100426.28;2079538;28;20164;-71
2023/05/21 02:57:30;;;;;;;10.48;5.22;;;;;;;19.33;100.00;100426.25;2095852;28;20443;-71
2023/05/21 02:58:53;;;;;;;11.48;6.05;;;;;;;19.33;100.00;100420.91;2087106;28;20052;-71
2023/05/21 03:00:15;;;;;;;12.90;5.95;;;;;;;19.33;100.00;100428.06;2083458;28;20060;-71
2023/05/21 03:01:40;;;;;;;11.63;5.45;;;;;;;19.32;100.00;100429.84;2082974;28;20096;-70
2023/05/21 03:03:02;;;;;;;9.80;5.50;;;;;;;19.32;100.00;100437.00;2074949;28;20087;-71
2023/05/21 03:04:24;;;;;;;10.15;5.72;;;;;;;19.31;100.00;100438.81;2083229;28;20056;-71
2023/05/21 03:05:47;;;;;;;10.20;5.22;;;;;;;19.32;100.00;100440.56;2095293;28;20127;-70
2023/05/21 03:07:08;;;;;;;10.52;4.88;;;;;;;19.35;100.00;100439.63;2083147;28;20072;-70
2023/05/21 03:08:31;;;;;;;10.68;5.13;;;;;;;19.37;100.00;100448.47;2076780;28;20044;-71
2023/05/21 03:09:54;;;;;;;9.23;5.32;;;;;;;19.40;100.00;100446.59;2076001;28;20685;-71
2023/05/21 03:11:18;;;;;;;9.73;6.00;;;;;;;19.43;99.42;100456.34;2082783;28;20044;-71
2023/05/21 03:12:40;;;;;;;9.45;5.00;;;;;;;19.46;98.62;100469.69;2079622;28;20041;-71
2023/05/21 03:14:02;;;;;;;9.95;5.45;;;;;;;19.49;98.12;100472.31;2097883;28;20182;-71
2023/05/21 03:15:23;;;;;;;12.02;5.60;;;;;;;19.53;98.46;100478.44;2081974;28;20528;-71
2023/05/21 03:16:46;;;;;;;11.70;5.47;;;;;;;19.53;99.11;100487.38;2084514;28;20215;-71
2023/05/21 03:18:07;;;;;;;10.80;5.93;;;;;;;19.55;99.87;100487.34;2096068;28;20041;-71
2023/05/21 03:19:33;;;;;;;11.05;5.13;;;;;;;19.56;100.00;100483.75;2089727;28;20040;-71
2023/05/21 03:20:57;;;;;;;9.70;5.30;;;;;;;19.58;100.00;100484.56;2097609;28;20108;-71
2023/05/21 03:22:19;;;;;;;10.77;4.90;;;;;;;19.59;100.00;100480.97;2079677;28;20071;-70
2023/05/21 03:23:41;;;;;;;10.13;5.28;;;;;;;19.61;100.00;100482.69;2086369;28;20052;-71
2023/05/21 03:25:05;;;;;;;10.52;5.22;;;;;;;19.60;100.00;100464.88;2101959;28;20040;-71
2023/05/21 03:26:28;;;;;;;11.00;5.55;;;;;;;19.60;100.00;100467.53;2080488;28;20073;-71
2023/05/21 03:27:51;;;;;;;9.55;5.72;;;;;;;19.61;100.00;100471.09;2091250;28;20070;-71
2023/05/21 03:29:32;;;;;;;13.55;5.93;;;;;;;19.58;100.00;100466.69;2087793;28;20056;-71
2023/05/21 03:30:56;;;;;;;9.63;5.75;;;;;;;19.58;100.00;100472.06;2085072;28;20041;-70
2023/05/21 03:32:29;;;;;;;9.90;5.93;;;;;;;19.58;100.00;100472.06;2105682;28;20547;-71
2023/05/21 03:33:52;;;;;;;11.90;5.93;;;;;;;19.58;100.00;100473.84;2083502;28;20075;-71
2023/05/21 03:35:24;;;;;;;9.52;5.90;;;;;;;19.56;100.00;100471.19;2095404;28;20393;-71
2023/05/21 03:36:46;;;;;;;14.88;7.22;;;;;;;19.55;100.00;100472.16;2082070;28;20505;-71
2023/05/21 03:38:10;;;;;;;11.93;6.85;;;;;;;19.55;100.00;100472.16;2084774;28;20594;-71
2023/05/21 03:39:31;;;;;;;13.70;7.05;;;;;;;19.53;100.00;100462.38;2096151;28;20081;-71
2023/05/21 03:40:56;;;;;;;14.70;7.97;;;;;;;19.49;100.00;100459.78;2082046;28;20152;-70
2023/05/21 03:42:17;;;;;;;12.57;7.10;;;;;;;19.44;100.00;100458.97;2106795;28;20035;-70
2023/05/21 03:43:44;;;;;;;14.98;7.95;;;;;;;19.37;100.00;100451.16;2082084;28;20476;-70
2023/05/21 03:45:08;;;;;;;17.77;8.65;;;;;;;19.29;100.00;100453.16;2092883;28;20043;-70
2023/05/21 03:47:06;;;;;;;17.52;9.48;;;;;;;19.15;100.00;100455.28;2072970;28;20053;-70
2023/05/21 03:48:29;;;;;;;18.33;9.10;;;;;;;19.07;100.00;100452.78;2061460;28;20086;-70
2023/05/21 03:49:52;;;;;;;15.63;9.05;;;;;;;18.97;100.00;100454.78;2078871;28;20087;-70
2023/05/21 03:51:14;;;;;;;15.40;10.15;;;;;;;18.88;100.00;100447.00;2084716;28;20056;-70
2023/05/21 03:52:37;;;;;;;15.75;10.38;;;;;;;18.78;100.00;100447.25;2084087;28;20572;-70
2023/05/21 03:54:00;;;;;;;17.63;10.10;;;;;;;18.67;100.00;100440.34;2081196;28;20057;-70
2023/05/21 03:55:23;;;;;;;17.65;10.70;;;;;;;18.60;100.00;100440.53;2070932;28;20048;-70
2023/05/21 03:56:46;;;;;;;18.85;10.18;;;;;;;18.52;100.00;100432.63;2078885;28;20963;-70
2023/05/21 03:58:09;;;;;;;15.90;10.07;;;;;;;18.48;100.00;100430.06;2091783;28;20049;-71
2023/05/21 03:59:30;;;;;;;20.13;10.85;;;;;;;18.45;100.00;100422.09;2086720;28;20053;-71
2023/05/21 04:00:54;;;;;;;19.13;11.23;;;;;;;18.43;100.00;100413.25;2083496;28;20048;-70
2023/05/21 04:02:17;;;;;;;21.25;10.70;;;;;;;18.40;100.00;100403.50;2084265;28;20539;-70
2023/05/21 04:03:38;;;;;;;16.50;9.60;;;;;;;18.38;100.00;100401.81;2092644;28;20130;-71
2023/05/21 04:05:03;;;;;;;20.77;10.25;;;;;;;18.35;100.00;100396.50;2095749;28;20099;-71
2023/05/21 04:06:24;;;;;;;18.42;11.27;;;;;;;18.31;100.00;100391.22;2085904;28;20245;-70
2023/05/21 04:07:47;;;;;;;17.00;10.55;;;;;;;18.26;100.00;100393.13;2091921;28;20043;-71
2023/05/21 04:09:08;;;;;;;16.65;10.30;;;;;;;18.23;100.00;100386.97;2082350;28;20045;-70
2023/05/21 04:10:31;;;;;;;20.42;10.55;;;;;;;18.21;100.00;100399.47;2084477;28;20049;-70
2023/05/21 04:11:55;;;;;;;17.83;11.05;;;;;;;18.19;100.00;100399.50;2087941;28;20041;-70
2023/05/21 04:13:16;;;;;;;17.83;10.65;;;;;;;18.19;100.00;100399.50;2093560;28;20055;-70
2023/05/21 04:14:38;;;;;;;20.35;11.68;;;;;;;18.19;100.00;100388.81;2094910;28;20052;-71
2023/05/21 04:16:00;;;;;;;17.70;10.75;;;;;;;18.16;100.00;100394.25;2085235;28;20050;-70
2023/05/21 04:17:25;;;;;;;19.15;11.45;;;;;;;18.12;100.00;100380.97;2086668;28;20036;-71
2023/05/21 04:18:46;;;;;;;18.83;12.07;;;;;;;18.04;100.00;100374.94;2081244;28;20037;-71
2023/05/21 04:20:12;;;;;;;21.55;13.77;;;;;;;17.91;100.00;100369.84;2092383;28;20099;-71
2023/05/21 04:21:33;;;;;;;24.55;13.27;;;;;;;17.84;100.00;100367.31;2083418;28;20053;-71
2023/05/21 04:22:56;;;;;;;22.73;12.55;;;;;;;17.82;100.00;100366.47;2081276;28;20140;-71
2023/05/21 04:24:17;;;;;;;23.25;12.50;;;;;;;17.81;100.00;100359.38;2076126;28;20091;-71
2023/05/21 04:25:49;;;;;;;18.20;11.00;;;;;;;17.81;100.00;100354.03;2077112;28;20077;-71
2023/05/21 04:27:15;;;;;;;18.80;10.77;;;;;;;17.80;100.00;100350.47;2076798;28;20060;-71
2023/05/21 04:28:40;;;;;;;19.27;11.80;;;;;;;17.80;100.00;100341.56;2093025;28;20041;-71
2023/05/21 04:30:05;;;;;;;18.42;11.05;;;;;;;17.78;100.00;100332.75;2080435;28;20498;-71
2023/05/21 04:31:30;;;;;;;17.48;11.60;;;;;;;17.74;100.00;100321.22;2084712;28;20056;-70
2023/05/21 04:32:53;;;;;;;;;;;;;;;17.72;100.00;100309.69;2081074;28;20061;-71
2023/05/21 04:34:16;;;;;;;19.98;10.88;;;;;;;17.73;100.00;100305.22;2075568;28;19927;-71
2023/05/21 04:35:43;;;;;;;20.20;11.88;;;;;;;17.70;100.00;100311.53;2092475;28;20493;-71
2023/05/21 04:37:06;;;;;;;19.08;11.10;;;;;;;17.71;100.00;100299.94;2086628;28;20056;-71
2023/05/21 04:38:27;;;;;;;17.58;11.60;;;;;;;17.73;100.00;100294.56;2084023;28;20045;-71
2023/05/21 04:39:50;;;;;;;23.25;13.10;;;;;;;17.75;100.00;100285.63;2081728;28;20417;-71
2023/05/21 04:41:13;;;;;;;21.55;13.15;;;;;;;17.78;100.00;100282.00;2081373;28;20090;-71
2023/05/21 04:42:40;;;;;;;23.10;12.18;;;;;;;17.82;100.00;100283.69;2076906;28;20096;-71
2023/05/21 04:44:02;;;;;;;20.67;13.20;;;;;;;17.81;100.00;100281.94;2088241;28;20049;-71
2023/05/21 04:45:28;;;;;;;19.73;14.38;;;;;;;17.80;100.00;100274.81;2099596;28;20048;-71
2023/05/21 04:46:51;;;;;;;27.80;15.10;;;;;;;17.80;100.00;100274.81;2091471;28;20048;-71
2023/05/21 04:48:14;;;;;;;21.00;11.90;;;;;;;17.82;100.00;100281.03;2089695;28;20045;-71
2023/05/21 04:49:36;;;;;;;20.33;10.98;;;;;;;17.79;100.00;100286.41;2082213;28;20052;-71
2023/05/21 04:50:58;;;;;;;20.25;10.93;;;;;;;17.74;100.00;100299.88;2081573;28;20057;-71
2023/05/21 04:52:23;;;;;;;17.88;8.93;;;;;;;17.68;100.00;100300.00;2077189;28;20524;-71
2023/05/21 04:53:46;;;;;;;14.25;8.50;;;;;;;17.63;100.00;100293.00;2071280;28;20129;-71
2023/05/21 04:55:09;;;;;;;22.42;9.70;;;;;;;17.56;100.00;100283.31;2089570;28;20155;-71
2023/05/21 04:56:31;;;;;;;23.50;9.75;;;;;;;17.54;100.00;100284.22;2081042;28;20508;-71
2023/05/21 04:57:56;;;;;;;14.68;8.60;;;;;;;17.55;100.00;100282.44;2091670;28;20041;-71
2023/05/21 04:59:18;;;;;;;16.58;8.10;;;;;;;17.52;100.00;100274.53;2080748;28;20060;-71
2023/05/21 05:00:44;;;;;;;17.13;8.88;;;;;;;17.50;100.00;100269.22;2103323;28;20039;-72
2023/05/21 05:02:07;;;;;;;17.17;9.55;;;;;;;17.52;100.00;100259.34;2088930;28;20076;-71
2023/05/21 05:03:29;;;;;;;18.73;9.80;;;;;;;17.59;100.00;100248.59;2082680;28;20492;-71
2023/05/21 05:04:51;;;;;;;18.42;9.02;;;;;;;17.65;100.00;100252.03;2094396;28;20051;-72
2023/05/21 05:06:15;;;;;;;17.67;9.57;;;;;;;17.70;100.00;100249.25;2083453;28;20045;-72
2023/05/21 05:07:37;;;;;;;19.13;9.60;;;;;;;17.74;100.00;100253.59;2095352;28;20507;-72
2023/05/21 05:08:59;;;;;;;16.50;9.68;;;;;;;17.75;100.00;100256.25;2087265;28;20042;-72
2023/05/21 05:10:22;;;;;;;18.40;9.43;;;;;;;17.79;100.00;100267.72;2083613;28;20041;-72
2023/05/21 05:11:44;;;;;;;17.08;8.88;;;;;;;17.78;100.00;100271.34;2088758;28;20072;-72
2023/05/21 05:13:08;;;;;;;20.38;10.70;;;;;;;17.78;100.00;100261.53;2092044;28;20144;-72
2023/05/21 05:14:31;;;;;;;14.68;9.63;;;;;;;17.80;100.00;100264.13;2091535;28;20072;-72
2023/05/21 05:15:52;;;;;;;21.88;10.15;;;;;;;17.81;100.00;100266.78;2082716;28;20132;-72
2023/05/21 05:17:15;;;;;;;22.00;9.10;;;;;;;17.80;100.00;100259.69;2099102;28;20052;-72
2023/05/21 05:18:37;;;;;;;18.63;8.80;;;;;;;17.81;100.00;100264.13;2086734;28;20165;-73
2023/05/21 05:20:00;;;;;;;21.38;9.65;;;;;;;17.82;100.00;100271.22;2083364;28;20049;-72
2023/05/21 05:21:22;;;;;;;22.85;9.50;;;;;;;17.85;100.00;100275.63;2086413;28;20079;-73
2023/05/21 05:22:45;;;;;;;20.98;9.02;;;;;;;17.91;100.00;100276.38;2075649;28;20535;-72
2023/05/21 05:24:08;;;;;;;18.40;8.43;;;;;;;17.98;100.00;100270.88;2078586;28;20511;-72
2023/05/21 05:25:30;;;;;;;23.10;9.13;;;;;;;18.02;100.00;100273.44;2080192;28;20033;-72
2023/05/21 05:26:53;;;;;;;18.05;7.88;;;;;;;18.06;100.00;100261.75;2091558;28;20151;-75
2023/05/21 05:28:18;;;;;;;19.63;8.70;;;;;;;18.09;100.00;100251.03;2078649;28;20049;-72
2023/05/21 05:29:41;;;;;;;19.83;7.65;;;;;;;18.14;100.00;100249.13;2095821;28;20052;-73
2023/05/21 05:31:04;;;;;;;19.25;8.48;;;;;;;18.18;100.00;100228.56;2080047;28;20136;-72
2023/05/21 05:32:26;;;;;;;22.40;8.65;;;;;;;18.19;100.00;100228.50;2097535;28;20512;-72
2023/05/21 05:33:49;;;;;;;24.50;7.70;;;;;;;18.21;100.00;100215.13;2086707;28;20095;-73
2023/05/21 05:35:11;;;;;;;23.65;8.35;;;;;;;18.24;100.00;100207.03;2076389;28;20116;-73
2023/05/21 05:36:34;;;;;;;21.65;8.45;;;;;;;18.23;100.00;100214.19;2099729;28;20036;-72
2023/05/21 05:37:57;;;;;;;32.60;8.18;;;;;;;18.22;100.00;100225.78;2085964;28;20053;-72
2023/05/21 05:39:20;;;;;;;24.27;8.73;;;;;;;18.19;100.00;100222.28;2080261;28;20032;-73
2023/05/21 05:40:43;;;;;;;29.75;8.25;;;;;;;18.14;100.00;100217.06;2097823;28;20082;-72
2023/05/21 05:42:05;;;;;;;24.77;8.68;;;;;;;18.15;100.00;100223.28;2086977;28;20515;-72
2023/05/21 05:43:29;;;;;;;;;;;;;;;18.15;100.00;100217.94;2088156;28;20059;-72
2023/05/21 05:44:53;;;;;;;30.95;8.82;;;;;;;18.13;100.00;100212.63;2080679;28;19956;-72
2023/05/21 05:46:16;;;;;;;28.50;8.52;;;;;;;18.15;100.00;100202.78;2087402;28;20080;-72
2023/05/21 05:47:39;;;;;;;23.30;8.07;;;;;;;18.21;100.00;100202.63;2079053;28;20067;-72
2023/05/21 05:49:00;;;;;;;28.75;9.25;;;;;;;18.28;100.00;100196.22;2083465;28;20044;-73
2023/05/21 05:50:23;;;;;;;22.95;8.20;;;;;;;18.35;100.00;100210.31;2082677;28;20432;-73
2023/05/21 05:51:45;;;;;;;23.55;8.55;;;;;;;18.38;100.00;100220.91;2081793;28;20048;-73
2023/05/21 05:53:07;;;;;;;31.85;8.68;;;;;;;18.40;100.00;100223.56;2079363;28;20056;-72
2023/05/21 05:54:31;;;;;;;24.20;8.00;;;;;;;18.44;100.00;100227.91;2083625;28;20102;-73
2023/05/21 05:55:53;;;;;;;29.40;9.05;;;;;;;18.48;100.00;100224.25;2093213;28;20055;-73
2023/05/21 05:57:16;;;;;;;25.35;8.13;;;;;;;18.51;100.00;100232.19;2084389;28;20553;-72
2023/05/21 05:58:43;;;;;;;25.48;8.75;;;;;;;18.49;100.00;100231.34;2084952;28;20045;-72
2023/05/21 06:00:09;;;;;;;27.60;7.82;;;;;;;18.51;100.00;100230.38;2084999;28;20040;-72
2023/05/21 06:01:34;;;;;;;28.92;7.88;;;;;;;18.55;100.00;100242.81;2102554;28;20067;-72
2023/05/21 06:02:57;;;;;;;28.13;8.70;;;;;;;18.58;100.00;100244.50;2084278;28;20045;-73
2023/05/21 06:04:19;;;;;;;28.05;7.95;;;;;;;18.60;100.00;100240.00;2074574;28;20094;-73
2023/05/21 06:05:43;;;;;;;27.98;8.70;;;;;;;18.60;100.00;100243.56;2095752;28;20048;-73
2023/05/21 06:07:05;;;;;;;27.27;8.45;;;;;;;18.59;100.00;100251.59;2079080;28;20054;-72
2023/05/21 06:08:27;;;;;;;26.48;8.43;;;;;;;18.58;100.00;100265.88;2096121;28;20105;-73
2023/05/21 06:09:49;;;;;;;27.65;8.63;;;;;;;18.58;100.00;100258.75;2080568;28;20077;-71
2023/05/21 06:11:11;;;;;;;26.77;7.22;;;;;;;18.62;100.00;100267.59;2099510;28;20133;-71
2023/05/21 06:12:33;;;;;;;29.13;8.30;;;;;;;18.64;100.00;100276.47;2082333;28;20108;-72
2023/05/21 06:13:59;;;;;;;29.95;8.43;;;;;;;18.64;100.00;100279.97;2077492;28;20054;-71
2023/05/21 06:15:22;;;;;;;29.17;8.95;;;;;;;18.66;100.00;100287.97;2096147;28;20043;-72
2023/05/21 06:16:44;;;;;;;26.77;8.95;;;;;;;18.67;100.00;100292.41;2079544;28;20111;-72
2023/05/21 06:18:07;;;;;;;28.98;10.02;;;;;;;18.68;100.00;100302.19;2081027;28;20060;-72
2023/05/21 06:19:31;;;;;;;28.60;8.90;;;;;;;18.70;100.00;100303.03;2082777;28;20041;-71